sensor_id;sensor_type;location;lat;lon;timestamp;noise_LAeq;noise_LA_min;noise_LA_max;noise_LA01;noise_LA95
72415;Laerm;60995;52.154;4.498;2022-12-01T00:01:40;44.86;38.04;57.60;;
72415;Laerm;60995;52.154;4.498;2022-12-01T00:03:56;44.19;37.89;59.61;;
72415;Laerm;60995;52.154;4.498;2022-12-01T00:06:17;42.55;37.89;59.57;;
72415;Laerm;60995;52.154;4.498;2022-12-01T00:08:34;46.52;37.68;59.50;;
72415;Laerm;60995;52.154;4.498;2022-12-01T00:10:50;41.46;37.81;59.57;;
72415;Laerm;60995;52.154;4.498;2022-12-01T00:13:06;43.10;37.16;56.77;;
72415;Laerm;60995;52.154;4.498;2022-12-01T00:15:25;42.16;37.54;58.95;;
72415;Laerm;60995;52.154;4.498;2022-12-01T00:17:41;45.70;38.03;58.76;;
72415;Laerm;60995;52.154;4.498;2022-12-01T00:20:00;44.80;37.64;58.51;;
72415;Laerm;60995;52.154;4.498;2022-12-01T00:22:16;45.20;37.56;62.25;;
72415;Laerm;60995;52.154;4.498;2022-12-01T00:24:32;41.10;38.08;57.87;;
72415;Laerm;60995;52.154;4.498;2022-12-01T00:26:48;40.99;37.20;57.71;;
72415;Laerm;60995;52.154;4.498;2022-12-01T00:29:04;46.50;37.60;57.37;;
72415;Laerm;60995;52.154;4.498;2022-12-01T00:31:21;40.71;37.65;50.94;;
72415;Laerm;60995;52.154;4.498;2022-12-01T00:33:38;40.98;37.26;60.66;;
72415;Laerm;60995;52.154;4.498;2022-12-01T00:35:58;40.59;37.34;47.24;;
72415;Laerm;60995;52.154;4.498;2022-12-01T00:38:14;45.30;37.43;52.52;;
72415;Laerm;60995;52.154;4.498;2022-12-01T00:40:30;44.07;37.03;57.63;;
72415;Laerm;60995;52.154;4.498;2022-12-01T00:42:46;41.91;37.47;58.55;;
72415;Laerm;60995;52.154;4.498;2022-12-01T00:45:03;40.89;36.67;55.92;;
72415;Laerm;60995;52.154;4.498;2022-12-01T00:47:19;43.02;37.44;59.95;;
72415;Laerm;60995;52.154;4.498;2022-12-01T00:49:35;47.03;38.17;59.46;;
72415;Laerm;60995;52.154;4.498;2022-12-01T00:51:51;40.63;37.40;57.78;;
72415;Laerm;60995;52.154;4.498;2022-12-01T00:54:07;42.87;37.37;56.90;;
72415;Laerm;60995;52.154;4.498;2022-12-01T00:56:23;40.70;36.85;55.26;;
72415;Laerm;60995;52.154;4.498;2022-12-01T00:58:39;44.40;37.51;59.16;;
72415;Laerm;60995;52.154;4.498;2022-12-01T01:00:57;44.97;37.79;57.93;;
72415;Laerm;60995;52.154;4.498;2022-12-01T01:03:13;40.73;36.54;58.50;;
72415;Laerm;60995;52.154;4.498;2022-12-01T01:05:29;44.99;37.59;59.76;;
72415;Laerm;60995;52.154;4.498;2022-12-01T01:07:45;40.95;37.56;59.34;;
72415;Laerm;60995;52.154;4.498;2022-12-01T01:10:01;45.36;37.61;54.01;;
72415;Laerm;60995;52.154;4.498;2022-12-01T01:12:17;42.71;37.72;54.29;;
72415;Laerm;60995;52.154;4.498;2022-12-01T01:14:33;41.39;37.22;59.66;;
72415;Laerm;60995;52.154;4.498;2022-12-01T01:16:50;40.73;37.15;59.25;;
72415;Laerm;60995;52.154;4.498;2022-12-01T01:19:06;44.62;37.50;58.75;;
72415;Laerm;60995;52.154;4.498;2022-12-01T01:21:22;41.97;37.43;57.34;;
72415;Laerm;60995;52.154;4.498;2022-12-01T01:23:38;40.85;37.03;60.71;;
72415;Laerm;60995;52.154;4.498;2022-12-01T01:26:13;40.65;37.28;59.03;;
72415;Laerm;60995;52.154;4.498;2022-12-01T01:28:30;40.83;37.14;59.35;;
72415;Laerm;60995;52.154;4.498;2022-12-01T01:30:46;46.01;37.72;59.80;;
72415;Laerm;60995;52.154;4.498;2022-12-01T01:33:02;43.14;37.03;57.70;;
72415;Laerm;60995;52.154;4.498;2022-12-01T01:35:18;40.92;37.33;57.11;;
72415;Laerm;60995;52.154;4.498;2022-12-01T01:37:36;41.31;37.53;55.41;;
72415;Laerm;60995;52.154;4.498;2022-12-01T01:39:52;42.68;37.13;55.33;;
72415;Laerm;60995;52.154;4.498;2022-12-01T01:42:11;45.26;36.50;52.45;;
72415;Laerm;60995;52.154;4.498;2022-12-01T01:44:53;40.44;36.78;48.34;;
72415;Laerm;60995;52.154;4.498;2022-12-01T01:47:10;40.51;36.66;48.35;;
72415;Laerm;60995;52.154;4.498;2022-12-01T01:49:27;43.14;37.33;57.82;;
72415;Laerm;60995;52.154;4.498;2022-12-01T01:51:51;45.31;37.13;59.09;;
72415;Laerm;60995;52.154;4.498;2022-12-01T01:54:11;41.67;36.74;57.26;;
72415;Laerm;60995;52.154;4.498;2022-12-01T01:56:30;42.47;36.94;58.66;;
72415;Laerm;60995;52.154;4.498;2022-12-01T01:58:47;42.72;37.04;59.42;;
72415;Laerm;60995;52.154;4.498;2022-12-01T02:01:04;43.67;37.95;58.81;;
72415;Laerm;60995;52.154;4.498;2022-12-01T02:03:21;44.99;37.64;56.03;;
72415;Laerm;60995;52.154;4.498;2022-12-01T02:05:38;41.06;37.56;59.26;;
72415;Laerm;60995;52.154;4.498;2022-12-01T02:07:56;44.27;37.60;58.24;;
72415;Laerm;60995;52.154;4.498;2022-12-01T02:10:14;40.51;37.01;55.57;;
72415;Laerm;60995;52.154;4.498;2022-12-01T02:12:57;46.30;37.22;52.60;;
72415;Laerm;60995;52.154;4.498;2022-12-01T02:21:41;40.85;37.06;56.99;;
72415;Laerm;60995;52.154;4.498;2022-12-01T02:34:14;45.05;37.29;52.20;;
72415;Laerm;60995;52.154;4.498;2022-12-01T02:36:42;41.04;37.61;48.85;;
72415;Laerm;60995;52.154;4.498;2022-12-01T02:39:08;40.65;37.39;47.99;;
72415;Laerm;60995;52.154;4.498;2022-12-01T02:41:32;41.68;36.74;52.44;;
72415;Laerm;60995;52.154;4.498;2022-12-01T02:43:58;43.28;37.65;50.11;;
72415;Laerm;60995;52.154;4.498;2022-12-01T02:46:37;41.00;37.55;49.64;;
72415;Laerm;60995;52.154;4.498;2022-12-01T02:48:58;42.80;37.90;55.75;;
72415;Laerm;60995;52.154;4.498;2022-12-01T02:51:22;41.41;38.22;52.06;;
72415;Laerm;60995;52.154;4.498;2022-12-01T02:53:40;44.54;37.82;53.07;;
72415;Laerm;60995;52.154;4.498;2022-12-01T02:55:57;40.81;37.47;50.84;;
72415;Laerm;60995;52.154;4.498;2022-12-01T02:58:14;41.25;38.12;50.55;;
72415;Laerm;60995;52.154;4.498;2022-12-01T03:00:30;41.04;37.42;55.14;;
72415;Laerm;60995;52.154;4.498;2022-12-01T03:03:18;44.71;38.40;52.11;;
72415;Laerm;60995;52.154;4.498;2022-12-01T03:10:54;42.09;38.24;53.13;;
72415;Laerm;60995;52.154;4.498;2022-12-01T03:15:56;41.67;38.28;49.79;;
72415;Laerm;60995;52.154;4.498;2022-12-01T03:18:27;43.03;38.48;49.02;;
72415;Laerm;60995;52.154;4.498;2022-12-01T03:21:22;41.18;37.76;47.90;;
72415;Laerm;60995;52.154;4.498;2022-12-01T03:23:47;43.77;38.43;51.32;;
72415;Laerm;60995;52.154;4.498;2022-12-01T03:26:07;41.77;38.59;58.43;;
72415;Laerm;60995;52.154;4.498;2022-12-01T03:28:29;41.67;38.34;53.85;;
72415;Laerm;60995;52.154;4.498;2022-12-01T03:30:50;42.13;38.59;48.50;;
72415;Laerm;60995;52.154;4.498;2022-12-01T03:33:13;42.35;38.40;50.36;;
72415;Laerm;60995;52.154;4.498;2022-12-01T03:35:41;41.44;37.77;50.37;;
72415;Laerm;60995;52.154;4.498;2022-12-01T03:40:25;42.01;38.96;55.37;;
72415;Laerm;60995;52.154;4.498;2022-12-01T03:42:48;43.01;38.80;54.25;;
72415;Laerm;60995;52.154;4.498;2022-12-01T03:45:08;42.88;38.98;52.30;;
72415;Laerm;60995;52.154;4.498;2022-12-01T03:47:29;42.60;39.20;49.07;;
72415;Laerm;60995;52.154;4.498;2022-12-01T03:49:49;42.28;38.32;49.00;;
72415;Laerm;60995;52.154;4.498;2022-12-01T03:57:02;46.13;38.40;60.73;;
72415;Laerm;60995;52.154;4.498;2022-12-01T03:59:21;42.54;38.63;51.30;;
72415;Laerm;60995;52.154;4.498;2022-12-01T04:01:38;41.98;38.93;50.01;;
72415;Laerm;60995;52.154;4.498;2022-12-01T04:03:55;42.89;38.28;55.98;;
72415;Laerm;60995;52.154;4.498;2022-12-01T04:06:11;42.77;38.56;52.25;;
72415;Laerm;60995;52.154;4.498;2022-12-01T04:08:27;41.65;38.02;52.00;;
72415;Laerm;60995;52.154;4.498;2022-12-01T04:10:45;42.08;38.58;57.77;;
72415;Laerm;60995;52.154;4.498;2022-12-01T04:13:01;46.89;39.11;60.09;;
72415;Laerm;60995;52.154;4.498;2022-12-01T04:15:17;43.86;38.87;53.61;;
72415;Laerm;60995;52.154;4.498;2022-12-01T04:17:33;43.70;39.18;54.03;;
72415;Laerm;60995;52.154;4.498;2022-12-01T04:19:49;43.11;39.47;58.95;;
72415;Laerm;60995;52.154;4.498;2022-12-01T04:22:05;44.01;39.29;54.48;;
72415;Laerm;60995;52.154;4.498;2022-12-01T04:24:21;43.88;39.23;56.55;;
72415;Laerm;60995;52.154;4.498;2022-12-01T04:26:37;43.12;39.39;54.86;;
72415;Laerm;60995;52.154;4.498;2022-12-01T04:28:53;43.89;39.50;56.98;;
72415;Laerm;60995;52.154;4.498;2022-12-01T04:31:10;43.93;38.91;54.28;;
72415;Laerm;60995;52.154;4.498;2022-12-01T04:33:28;44.38;39.35;56.42;;
72415;Laerm;60995;52.154;4.498;2022-12-01T04:35:44;43.00;38.34;52.25;;
72415;Laerm;60995;52.154;4.498;2022-12-01T04:38:00;43.74;39.56;58.69;;
72415;Laerm;60995;52.154;4.498;2022-12-01T04:40:16;44.63;39.87;57.14;;
72415;Laerm;60995;52.154;4.498;2022-12-01T04:42:33;45.52;40.60;57.94;;
72415;Laerm;60995;52.154;4.498;2022-12-01T04:44:49;44.55;40.61;56.28;;
72415;Laerm;60995;52.154;4.498;2022-12-01T04:47:05;45.56;39.75;58.63;;
72415;Laerm;60995;52.154;4.498;2022-12-01T04:49:21;45.49;39.29;53.52;;
72415;Laerm;60995;52.154;4.498;2022-12-01T04:51:37;46.02;40.58;55.99;;
72415;Laerm;60995;52.154;4.498;2022-12-01T04:53:53;45.41;40.31;55.75;;
72415;Laerm;60995;52.154;4.498;2022-12-01T04:56:10;45.79;40.51;54.20;;
72415;Laerm;60995;52.154;4.498;2022-12-01T04:58:30;46.70;40.60;56.46;;
72415;Laerm;60995;52.154;4.498;2022-12-01T05:01:07;45.75;40.51;54.99;;
72415;Laerm;60995;52.154;4.498;2022-12-01T05:03:23;46.02;41.35;53.27;;
72415;Laerm;60995;52.154;4.498;2022-12-01T05:05:39;45.53;41.48;52.80;;
72415;Laerm;60995;52.154;4.498;2022-12-01T05:07:57;47.03;42.16;57.45;;
72415;Laerm;60995;52.154;4.498;2022-12-01T05:10:13;46.14;41.95;57.09;;
72415;Laerm;60995;52.154;4.498;2022-12-01T05:12:29;45.67;40.80;53.80;;
72415;Laerm;60995;52.154;4.498;2022-12-01T05:14:45;46.91;41.02;55.70;;
72415;Laerm;60995;52.154;4.498;2022-12-01T05:17:03;46.02;41.75;51.60;;
72415;Laerm;60995;52.154;4.498;2022-12-01T05:19:19;46.60;41.55;55.90;;
72415;Laerm;60995;52.154;4.498;2022-12-01T05:21:54;48.66;41.72;59.98;;
72415;Laerm;60995;52.154;4.498;2022-12-01T05:24:11;47.94;41.47;56.66;;
72415;Laerm;60995;52.154;4.498;2022-12-01T05:26:27;47.08;41.51;59.01;;
72415;Laerm;60995;52.154;4.498;2022-12-01T05:28:43;46.86;42.50;58.87;;
72415;Laerm;60995;52.154;4.498;2022-12-01T05:30:59;48.92;42.51;58.40;;
72415;Laerm;60995;52.154;4.498;2022-12-01T05:33:16;49.75;41.45;63.26;;
72415;Laerm;60995;52.154;4.498;2022-12-01T05:35:32;49.51;41.44;58.74;;
72415;Laerm;60995;52.154;4.498;2022-12-01T05:37:49;60.20;43.48;74.38;;
72415;Laerm;60995;52.154;4.498;2022-12-01T05:40:07;53.45;42.76;67.46;;
72415;Laerm;60995;52.154;4.498;2022-12-01T05:42:23;50.27;43.67;56.72;;
72415;Laerm;60995;52.154;4.498;2022-12-01T05:44:39;49.29;42.52;59.08;;
72415;Laerm;60995;52.154;4.498;2022-12-01T05:46:55;49.18;43.11;59.10;;
72415;Laerm;60995;52.154;4.498;2022-12-01T05:49:11;49.49;42.83;59.91;;
72415;Laerm;60995;52.154;4.498;2022-12-01T05:51:27;48.81;42.81;58.29;;
72415;Laerm;60995;52.154;4.498;2022-12-01T05:53:43;49.65;43.07;59.82;;
72415;Laerm;60995;52.154;4.498;2022-12-01T05:56:00;51.46;43.80;63.18;;
72415;Laerm;60995;52.154;4.498;2022-12-01T05:58:16;50.28;43.83;58.31;;
72415;Laerm;60995;52.154;4.498;2022-12-01T06:00:32;51.78;43.61;61.65;;
72415;Laerm;60995;52.154;4.498;2022-12-01T06:02:48;54.56;43.50;69.25;;
72415;Laerm;60995;52.154;4.498;2022-12-01T06:05:04;49.07;43.96;58.85;;
72415;Laerm;60995;52.154;4.498;2022-12-01T06:07:20;49.24;42.71;57.75;;
72415;Laerm;60995;52.154;4.498;2022-12-01T06:09:38;57.76;42.95;70.36;;
72415;Laerm;60995;52.154;4.498;2022-12-01T06:11:54;50.00;42.79;59.52;;
72415;Laerm;60995;52.154;4.498;2022-12-01T06:14:10;48.51;42.22;57.84;;
72415;Laerm;60995;52.154;4.498;2022-12-01T06:16:26;49.26;42.78;56.77;;
72415;Laerm;60995;52.154;4.498;2022-12-01T06:18:42;54.86;44.63;68.19;;
72415;Laerm;60995;52.154;4.498;2022-12-01T06:20:58;50.36;43.64;59.36;;
72415;Laerm;60995;52.154;4.498;2022-12-01T06:23:14;50.60;44.14;58.94;;
72415;Laerm;60995;52.154;4.498;2022-12-01T06:25:30;51.62;45.24;62.51;;
72415;Laerm;60995;52.154;4.498;2022-12-01T06:27:46;50.62;45.70;60.59;;
72415;Laerm;60995;52.154;4.498;2022-12-01T06:30:03;49.77;44.07;59.74;;
72415;Laerm;60995;52.154;4.498;2022-12-01T06:32:19;50.72;44.23;56.87;;
72415;Laerm;60995;52.154;4.498;2022-12-01T06:34:35;52.52;45.63;61.07;;
72415;Laerm;60995;52.154;4.498;2022-12-01T06:36:51;51.98;45.24;61.78;;
72415;Laerm;60995;52.154;4.498;2022-12-01T06:39:08;52.95;44.37;63.52;;
72415;Laerm;60995;52.154;4.498;2022-12-01T06:41:24;49.83;43.64;61.46;;
72415;Laerm;60995;52.154;4.498;2022-12-01T06:43:40;51.51;43.37;62.53;;
72415;Laerm;60995;52.154;4.498;2022-12-01T06:45:56;54.42;44.98;68.02;;
72415;Laerm;60995;52.154;4.498;2022-12-01T06:48:13;52.11;46.00;61.74;;
72415;Laerm;60995;52.154;4.498;2022-12-01T06:50:29;50.96;44.97;57.47;;
72415;Laerm;60995;52.154;4.498;2022-12-01T06:52:45;55.13;45.99;66.66;;
72415;Laerm;60995;52.154;4.498;2022-12-01T06:55:02;51.58;45.76;58.17;;
72415;Laerm;60995;52.154;4.498;2022-12-01T06:57:19;53.21;46.90;68.89;;
72415;Laerm;60995;52.154;4.498;2022-12-01T06:59:35;52.02;45.88;61.31;;
72415;Laerm;60995;52.154;4.498;2022-12-01T07:01:51;52.08;45.38;63.11;;
72415;Laerm;60995;52.154;4.498;2022-12-01T07:04:07;53.16;46.23;64.16;;
72415;Laerm;60995;52.154;4.498;2022-12-01T07:06:23;55.26;46.85;65.22;;
72415;Laerm;60995;52.154;4.498;2022-12-01T07:08:39;53.66;47.01;64.90;;
72415;Laerm;60995;52.154;4.498;2022-12-01T07:11:00;52.43;46.70;62.76;;
72415;Laerm;60995;52.154;4.498;2022-12-01T07:13:16;52.66;46.88;61.10;;
72415;Laerm;60995;52.154;4.498;2022-12-01T07:15:32;52.21;46.44;61.15;;
72415;Laerm;60995;52.154;4.498;2022-12-01T07:17:49;51.49;45.23;58.20;;
72415;Laerm;60995;52.154;4.498;2022-12-01T07:20:05;58.16;45.84;70.24;;
72415;Laerm;60995;52.154;4.498;2022-12-01T07:22:21;51.14;44.15;65.82;;
72415;Laerm;60995;52.154;4.498;2022-12-01T07:24:37;54.85;45.57;64.94;;
72415;Laerm;60995;52.154;4.498;2022-12-01T07:26:53;56.85;46.76;69.34;;
72415;Laerm;60995;52.154;4.498;2022-12-01T07:29:10;52.37;46.49;63.98;;
72415;Laerm;60995;52.154;4.498;2022-12-01T07:31:26;52.47;45.29;66.77;;
72415;Laerm;60995;52.154;4.498;2022-12-01T07:33:42;49.80;44.24;56.76;;
72415;Laerm;60995;52.154;4.498;2022-12-01T07:35:59;50.23;44.74;57.07;;
72415;Laerm;60995;52.154;4.498;2022-12-01T07:38:15;51.20;43.36;61.99;;
72415;Laerm;60995;52.154;4.498;2022-12-01T07:40:31;52.30;43.51;68.37;;
72415;Laerm;60995;52.154;4.498;2022-12-01T07:42:47;50.62;42.84;60.94;;
72415;Laerm;60995;52.154;4.498;2022-12-01T07:45:03;50.74;44.05;58.60;;
72415;Laerm;60995;52.154;4.498;2022-12-01T07:47:19;51.66;44.17;68.45;;
72415;Laerm;60995;52.154;4.498;2022-12-01T07:49:35;51.53;44.10;61.18;;
72415;Laerm;60995;52.154;4.498;2022-12-01T07:51:52;53.19;44.24;63.47;;
72415;Laerm;60995;52.154;4.498;2022-12-01T07:54:09;50.48;44.29;57.79;;
72415;Laerm;60995;52.154;4.498;2022-12-01T07:56:25;52.73;47.63;59.25;;
72415;Laerm;60995;52.154;4.498;2022-12-01T07:58:41;53.28;46.99;60.03;;
72415;Laerm;60995;52.154;4.498;2022-12-01T08:00:58;54.44;47.57;61.71;;
72415;Laerm;60995;52.154;4.498;2022-12-01T08:03:14;52.37;46.11;66.08;;
72415;Laerm;60995;52.154;4.498;2022-12-01T08:05:30;54.45;46.39;65.97;;
72415;Laerm;60995;52.154;4.498;2022-12-01T08:07:46;52.99;45.16;67.77;;
72415;Laerm;60995;52.154;4.498;2022-12-01T08:10:02;50.78;46.01;61.15;;
72415;Laerm;60995;52.154;4.498;2022-12-01T08:12:18;52.02;46.74;63.38;;
72415;Laerm;60995;52.154;4.498;2022-12-01T08:14:34;54.21;45.60;71.33;;
72415;Laerm;60995;52.154;4.498;2022-12-01T08:16:50;51.46;45.96;60.11;;
72415;Laerm;60995;52.154;4.498;2022-12-01T08:19:09;51.24;45.35;59.55;;
72415;Laerm;60995;52.154;4.498;2022-12-01T08:21:25;55.16;46.01;69.94;;
72415;Laerm;60995;52.154;4.498;2022-12-01T08:23:42;71.16;46.69;85.38;;
72415;Laerm;60995;52.154;4.498;2022-12-01T08:26:09;53.09;45.29;65.88;;
72415;Laerm;60995;52.154;4.498;2022-12-01T08:28:27;51.58;46.20;58.14;;
72415;Laerm;60995;52.154;4.498;2022-12-01T08:30:44;52.09;46.43;60.51;;
72415;Laerm;60995;52.154;4.498;2022-12-01T08:33:00;53.99;45.52;70.34;;
72415;Laerm;60995;52.154;4.498;2022-12-01T08:35:16;52.14;45.20;58.08;;
72415;Laerm;60995;52.154;4.498;2022-12-01T08:37:32;51.14;45.51;57.80;;
72415;Laerm;60995;52.154;4.498;2022-12-01T08:39:48;50.21;44.07;58.68;;
72415;Laerm;60995;52.154;4.498;2022-12-01T08:42:04;51.04;44.62;63.29;;
72415;Laerm;60995;52.154;4.498;2022-12-01T08:44:20;51.03;44.43;60.13;;
72415;Laerm;60995;52.154;4.498;2022-12-01T08:46:36;53.02;43.32;77.25;;
72415;Laerm;60995;52.154;4.498;2022-12-01T08:48:53;53.86;42.52;67.53;;
72415;Laerm;60995;52.154;4.498;2022-12-01T08:51:12;49.68;43.05;59.05;;
72415;Laerm;60995;52.154;4.498;2022-12-01T08:53:29;49.19;42.33;62.44;;
72415;Laerm;60995;52.154;4.498;2022-12-01T08:55:45;48.84;42.12;67.49;;
72415;Laerm;60995;52.154;4.498;2022-12-01T08:58:01;49.61;42.23;62.78;;
72415;Laerm;60995;52.154;4.498;2022-12-01T09:00:17;57.88;43.83;70.81;;
72415;Laerm;60995;52.154;4.498;2022-12-01T09:02:33;59.52;45.79;71.08;;
72415;Laerm;60995;52.154;4.498;2022-12-01T09:04:49;52.25;43.21;65.03;;
72415;Laerm;60995;52.154;4.498;2022-12-01T09:07:09;51.32;43.14;59.97;;
72415;Laerm;60995;52.154;4.498;2022-12-01T09:09:27;49.70;43.02;64.72;;
72415;Laerm;60995;52.154;4.498;2022-12-01T09:11:44;49.12;43.23;59.16;;
72415;Laerm;60995;52.154;4.498;2022-12-01T09:14:00;51.98;44.08;60.64;;
72415;Laerm;60995;52.154;4.498;2022-12-01T09:16:17;50.84;43.18;59.06;;
72415;Laerm;60995;52.154;4.498;2022-12-01T09:18:33;49.86;43.38;59.54;;
72415;Laerm;60995;52.154;4.498;2022-12-01T09:20:50;56.46;42.99;70.91;;
72415;Laerm;60995;52.154;4.498;2022-12-01T09:23:06;54.62;42.87;66.86;;
72415;Laerm;60995;52.154;4.498;2022-12-01T09:25:22;63.56;43.32;75.70;;
72415;Laerm;60995;52.154;4.498;2022-12-01T09:27:38;61.26;43.84;76.26;;
72415;Laerm;60995;52.154;4.498;2022-12-01T09:29:54;58.20;42.31;71.14;;
72415;Laerm;60995;52.154;4.498;2022-12-01T09:32:10;57.56;47.84;72.77;;
72415;Laerm;60995;52.154;4.498;2022-12-01T09:34:27;49.94;42.69;59.38;;
72415;Laerm;60995;52.154;4.498;2022-12-01T09:36:44;58.66;43.85;69.48;;
72415;Laerm;60995;52.154;4.498;2022-12-01T09:39:00;56.50;45.96;68.05;;
72415;Laerm;60995;52.154;4.498;2022-12-01T09:41:26;56.26;46.47;76.53;;
72415;Laerm;60995;52.154;4.498;2022-12-01T09:43:48;50.75;43.63;59.58;;
72415;Laerm;60995;52.154;4.498;2022-12-01T09:46:12;49.37;42.14;62.39;;
72415;Laerm;60995;52.154;4.498;2022-12-01T09:48:44;50.59;42.59;59.68;;
72415;Laerm;60995;52.154;4.498;2022-12-01T09:51:00;59.66;45.35;72.79;;
72415;Laerm;60995;52.154;4.498;2022-12-01T09:53:21;51.41;45.07;59.73;;
72415;Laerm;60995;52.154;4.498;2022-12-01T09:55:38;50.10;42.94;58.27;;
72415;Laerm;60995;52.154;4.498;2022-12-01T09:57:57;47.92;41.62;59.18;;
72415;Laerm;60995;52.154;4.498;2022-12-01T10:00:25;49.78;41.90;60.68;;
72415;Laerm;60995;52.154;4.498;2022-12-01T10:03:33;52.43;47.18;59.90;;
72415;Laerm;60995;52.154;4.498;2022-12-01T10:05:53;47.57;40.97;61.23;;
72415;Laerm;60995;52.154;4.498;2022-12-01T10:08:22;49.00;43.27;59.54;;
72415;Laerm;60995;52.154;4.498;2022-12-01T10:10:44;49.85;42.37;64.57;;
72415;Laerm;60995;52.154;4.498;2022-12-01T10:13:01;54.30;48.43;69.51;;
72415;Laerm;60995;52.154;4.498;2022-12-01T10:20:27;49.83;43.34;65.43;;
72415;Laerm;60995;52.154;4.498;2022-12-01T10:25:25;50.84;44.34;68.51;;
72415;Laerm;60995;52.154;4.498;2022-12-01T10:27:59;50.25;42.57;61.54;;
72415;Laerm;60995;52.154;4.498;2022-12-01T10:30:21;49.34;42.42;60.14;;
72415;Laerm;60995;52.154;4.498;2022-12-01T10:33:00;51.03;41.08;60.05;;
72415;Laerm;60995;52.154;4.498;2022-12-01T10:35:27;49.98;42.11;59.88;;
72415;Laerm;60995;52.154;4.498;2022-12-01T10:37:49;48.27;41.72;57.67;;
72415;Laerm;60995;52.154;4.498;2022-12-01T10:40:11;50.85;42.67;60.96;;
72415;Laerm;60995;52.154;4.498;2022-12-01T10:42:39;51.96;43.50;61.12;;
72415;Laerm;60995;52.154;4.498;2022-12-01T10:45:00;50.43;41.65;59.10;;
72415;Laerm;60995;52.154;4.498;2022-12-01T10:47:22;51.34;42.24;65.23;;
72415;Laerm;60995;52.154;4.498;2022-12-01T10:49:39;51.38;42.47;60.35;;
72415;Laerm;60995;52.154;4.498;2022-12-01T10:51:57;51.32;43.41;67.55;;
72415;Laerm;60995;52.154;4.498;2022-12-01T10:54:13;51.69;42.83;62.55;;
72415;Laerm;60995;52.154;4.498;2022-12-01T10:56:30;49.81;41.95;60.94;;
72415;Laerm;60995;52.154;4.498;2022-12-01T10:58:52;53.54;44.24;64.55;;
72415;Laerm;60995;52.154;4.498;2022-12-01T11:01:23;49.92;43.38;58.39;;
72415;Laerm;60995;52.154;4.498;2022-12-01T11:03:40;49.99;42.26;60.68;;
72415;Laerm;60995;52.154;4.498;2022-12-01T11:05:58;50.48;41.59;59.70;;
72415;Laerm;60995;52.154;4.498;2022-12-01T11:08:24;54.19;42.73;68.53;;
72415;Laerm;60995;52.154;4.498;2022-12-01T11:10:47;49.98;41.03;58.83;;
72415;Laerm;60995;52.154;4.498;2022-12-01T11:13:26;49.55;42.34;58.36;;
72415;Laerm;60995;52.154;4.498;2022-12-01T11:15:59;53.84;44.14;67.92;;
72415;Laerm;60995;52.154;4.498;2022-12-01T11:18:30;48.87;40.48;60.07;;
72415;Laerm;60995;52.154;4.498;2022-12-01T11:20:46;51.47;44.43;61.82;;
72415;Laerm;60995;52.154;4.498;2022-12-01T11:25:39;50.99;41.47;73.58;;
72415;Laerm;60995;52.154;4.498;2022-12-01T11:27:55;49.94;41.49;64.89;;
72415;Laerm;60995;52.154;4.498;2022-12-01T11:30:22;48.24;41.46;58.55;;
72415;Laerm;60995;52.154;4.498;2022-12-01T11:32:39;49.64;41.31;59.53;;
72415;Laerm;60995;52.154;4.498;2022-12-01T11:34:58;48.73;40.04;57.50;;
72415;Laerm;60995;52.154;4.498;2022-12-01T11:37:17;53.54;42.34;69.32;;
72415;Laerm;60995;52.154;4.498;2022-12-01T11:39:39;49.07;41.23;62.73;;
72415;Laerm;60995;52.154;4.498;2022-12-01T11:41:58;48.64;40.13;59.77;;
72415;Laerm;60995;52.154;4.498;2022-12-01T11:44:17;59.19;41.33;77.26;;
72415;Laerm;60995;52.154;4.498;2022-12-01T11:46:37;49.96;41.59;60.17;;
72415;Laerm;60995;52.154;4.498;2022-12-01T11:48:59;49.03;40.44;59.73;;
72415;Laerm;60995;52.154;4.498;2022-12-01T11:53:40;47.96;39.99;57.32;;
72415;Laerm;60995;52.154;4.498;2022-12-01T11:58:32;49.31;40.81;65.85;;
72415;Laerm;60995;52.154;4.498;2022-12-01T12:00:54;49.89;39.66;62.12;;
72415;Laerm;60995;52.154;4.498;2022-12-01T12:03:19;50.67;40.27;73.92;;
72415;Laerm;60995;52.154;4.498;2022-12-01T12:08:12;49.52;40.17;75.18;;
72415;Laerm;60995;52.154;4.498;2022-12-01T12:23:01;55.25;42.11;68.60;;
72415;Laerm;60995;52.154;4.498;2022-12-01T12:25:33;52.55;41.38;70.16;;
72415;Laerm;60995;52.154;4.498;2022-12-01T12:43:33;49.12;41.31;59.52;;
72415;Laerm;60995;52.154;4.498;2022-12-01T12:46:01;49.70;41.34;58.66;;
72415;Laerm;60995;52.154;4.498;2022-12-01T12:51:45;49.32;40.02;59.13;;
72415;Laerm;60995;52.154;4.498;2022-12-01T12:56:45;55.73;43.56;70.84;;
72415;Laerm;60995;52.154;4.498;2022-12-01T12:59:07;58.40;41.79;70.28;;
72415;Laerm;60995;52.154;4.498;2022-12-01T13:01:33;56.55;42.59;73.48;;
72415;Laerm;60995;52.154;4.498;2022-12-01T13:06:18;51.94;42.59;62.42;;
72415;Laerm;60995;52.154;4.498;2022-12-01T13:08:46;51.41;44.60;61.27;;
72415;Laerm;60995;52.154;4.498;2022-12-01T13:16:05;61.13;43.22;91.29;;
72415;Laerm;60995;52.154;4.498;2022-12-01T13:21:03;52.18;42.66;66.56;;
72415;Laerm;60995;52.154;4.498;2022-12-01T13:23:20;49.13;42.64;60.10;;
72415;Laerm;60995;52.154;4.498;2022-12-01T13:25:39;50.52;42.21;65.51;;
72415;Laerm;60995;52.154;4.498;2022-12-01T13:27:57;50.93;41.66;64.99;;
72415;Laerm;60995;52.154;4.498;2022-12-01T13:30:26;56.85;42.95;83.85;;
72415;Laerm;60995;52.154;4.498;2022-12-01T13:32:42;50.07;41.61;63.17;;
72415;Laerm;60995;52.154;4.498;2022-12-01T13:34:59;51.23;41.05;68.22;;
72415;Laerm;60995;52.154;4.498;2022-12-01T13:37:31;50.64;41.13;60.75;;
72415;Laerm;60995;52.154;4.498;2022-12-01T13:39:52;49.78;41.13;58.38;;
72415;Laerm;60995;52.154;4.498;2022-12-01T13:42:24;49.44;42.22;60.73;;
72415;Laerm;60995;52.154;4.498;2022-12-01T13:44:43;52.22;41.64;65.88;;
72415;Laerm;60995;52.154;4.498;2022-12-01T13:54:36;49.24;41.29;55.15;;
72415;Laerm;60995;52.154;4.498;2022-12-01T13:57:10;52.27;42.04;69.23;;
72415;Laerm;60995;52.154;4.498;2022-12-01T14:00:33;51.97;41.33;72.33;;
72415;Laerm;60995;52.154;4.498;2022-12-01T14:02:28;54.48;43.00;66.29;;
72415;Laerm;60995;52.154;4.498;2022-12-01T14:04:44;50.08;40.82;60.22;;
72415;Laerm;60995;52.154;4.498;2022-12-01T14:07:19;49.70;42.22;63.49;;
72415;Laerm;60995;52.154;4.498;2022-12-01T14:09:38;48.41;41.37;57.97;;
72415;Laerm;60995;52.154;4.498;2022-12-01T14:12:43;50.38;41.32;65.88;;
72415;Laerm;60995;52.154;4.498;2022-12-01T14:14:46;52.44;41.45;67.95;;
72415;Laerm;60995;52.154;4.498;2022-12-01T14:17:24;55.36;42.14;79.96;;
72415;Laerm;60995;52.154;4.498;2022-12-01T14:22:03;54.38;44.26;68.90;;
72415;Laerm;60995;52.154;4.498;2022-12-01T14:24:24;49.47;41.52;59.66;;
72415;Laerm;60995;52.154;4.498;2022-12-01T14:26:44;49.88;42.46;60.15;;
72415;Laerm;60995;52.154;4.498;2022-12-01T14:31:17;59.82;43.66;74.32;;
72415;Laerm;60995;52.154;4.498;2022-12-01T14:34:09;48.60;41.31;56.96;;
72415;Laerm;60995;52.154;4.498;2022-12-01T14:39:03;51.21;41.65;74.34;;
72415;Laerm;60995;52.154;4.498;2022-12-01T14:43:45;50.15;43.43;59.88;;
72415;Laerm;60995;52.154;4.498;2022-12-01T14:46:23;53.71;43.77;75.24;;
72415;Laerm;60995;52.154;4.498;2022-12-01T14:48:43;52.62;42.13;70.24;;
72415;Laerm;60995;52.154;4.498;2022-12-01T14:53:39;51.33;42.05;61.89;;
72415;Laerm;60995;52.154;4.498;2022-12-01T14:56:10;51.58;44.25;67.98;;